Terminal Aerodrome Forecast
Issued by NWS Memphis, TN

Home | Current Version | Previous Version | Text Only | Print | Product List | Glossary On
Versions: 1 2 3 4 5 6 7 8 9 10 11 12 13 14 15 16 17
718
FTUS44 KMEG 281120
TAFMKL
TAF
KMKL 281120Z 2812/2912 17008KT P6SM VCSH SCT050 BKN120
      TEMPO 2819/2822 VRB10G20KT 5SM TSRA OVC040CB
     FM282200 19005KT P6SM VCSH SCT045 BKN200
     FM290200 VRB02KT P6SM SCT250
      TEMPO 2910/2912 5SM BR=

USA.gov is the U.S. government's official web portal to all federal, state and local government web resources and services.